Time;durP1;ratioP1;P1;durP2;ratioP2;P2;SDS_P1;SDS_P2;PMS_P1;PMS_P2;Temp;Humidity;BMP_temperature;BMP_pressure;BME280_temperature;BME280_humidity;BME280_pressure;Samples;Min_cycle;Max_cycle;Signal;HPM_P1;HPM_P2
2024/01/06 00:00:30;;;;;;;11.70;6.77;;;-0.30;99.90;;;;;;5034308;28;20175;-49
2024/01/06 00:02:56;;;;;;;11.97;6.73;;;-0.30;99.90;;;;;;5033736;28;20179;-50
2024/01/06 00:05:21;;;;;;;11.70;7.17;;;-0.30;1.00;;;;;;5033878;28;20210;-51
2024/01/06 00:07:47;;;;;;;13.20;7.10;;;-0.30;27.20;;;;;;5033921;28;20281;-53
2024/01/06 00:10:18;;;;;;;10.67;6.50;;;-0.30;99.90;;;;;;5034093;28;20219;-53
2024/01/06 00:12:43;;;;;;;9.63;6.23;;;-0.30;1.00;;;;;;5033960;28;20442;-50
2024/01/06 00:15:10;;;;;;;12.10;7.17;;;-0.30;1.00;;;;;;5034024;28;20987;-50
2024/01/06 00:17:36;;;;;;;14.27;6.93;;;-0.30;1.00;;;;;;5033842;28;20250;-51
2024/01/06 00:20:02;;;;;;;10.90;6.90;;;-0.30;99.90;;;;;;5033461;28;20446;-49
2024/01/06 00:22:28;;;;;;;12.53;7.10;;;-0.30;99.90;;;;;;5033503;28;20237;-50
2024/01/06 00:24:53;;;;;;;11.23;7.40;;;-0.30;1.00;;;;;;5033746;28;20937;-50
2024/01/06 00:27:19;;;;;;;12.77;7.67;;;-0.30;1.00;;;;;;5033588;28;20211;-50
2024/01/06 00:29:44;;;;;;;11.73;6.87;;;-0.20;99.90;;;;;;5034378;28;20183;-50
2024/01/06 00:32:10;;;;;;;10.63;6.30;;;-0.30;1.00;;;;;;5033784;28;20187;-50
2024/01/06 00:34:35;;;;;;;13.80;7.40;;;-0.30;1.00;;;;;;5033292;28;20201;-51
2024/01/06 00:37:01;;;;;;;12.57;7.43;;;-0.30;1.00;;;;;;5033036;28;20184;-51
2024/01/06 00:39:26;;;;;;;13.63;7.20;;;-0.40;1.00;;;;;;5033452;28;20711;-50
2024/01/06 00:41:52;;;;;;;12.43;7.87;;;-0.30;99.90;;;;;;5033271;28;20270;-50
2024/01/06 00:44:17;;;;;;;10.67;7.30;;;-0.30;1.00;;;;;;5033256;28;20229;-51
2024/01/06 00:46:43;;;;;;;9.90;6.80;;;-0.30;1.00;;;;;;5033685;28;20187;-50
2024/01/06 00:49:09;;;;;;;12.27;7.03;;;-0.30;1.00;;;;;;5033781;28;20183;-50
2024/01/06 00:51:34;;;;;;;12.63;7.50;;;-0.30;1.00;;;;;;5032445;28;20180;-50
2024/01/06 00:54:00;;;;;;;10.67;6.40;;;-0.30;99.90;;;;;;5032853;28;20194;-50
2024/01/06 00:56:26;;;;;;;11.90;7.03;;;-0.30;99.90;;;;;;5033233;28;20224;-50
2024/01/06 00:58:52;;;;;;;12.70;7.43;;;-0.30;99.90;;;;;;5033127;28;20277;-51
2024/01/06 01:01:18;;;;;;;12.27;7.70;;;-0.30;99.90;;;;;;5032984;28;20450;-52
2024/01/06 01:03:44;;;;;;;13.93;7.20;;;-0.30;99.90;;;;;;5032595;28;20967;-51
2024/01/06 01:06:09;;;;;;;12.50;7.13;;;-0.30;1.00;;;;;;5032685;28;20206;-50
2024/01/06 01:08:35;;;;;;;10.70;7.00;;;-0.30;99.90;;;;;;5033256;28;20190;-50
2024/01/06 01:11:00;;;;;;;14.77;8.63;;;-0.20;1.00;;;;;;5032813;28;20230;-50
2024/01/06 01:13:26;;;;;;;10.80;6.73;;;-0.30;99.90;;;;;;5032508;28;20194;-51
2024/01/06 01:15:51;;;;;;;13.93;8.37;;;-0.30;99.90;;;;;;5032758;28;20180;-50
2024/01/06 01:18:17;;;;;;;12.47;7.50;;;-0.30;1.00;;;;;;5032554;28;20245;-51
2024/01/06 01:20:42;;;;;;;11.30;7.03;;;-0.30;1.00;;;;;;5032695;28;20178;-50
2024/01/06 01:23:08;;;;;;;12.27;7.77;;;-0.30;1.00;;;;;;5032557;28;20267;-51
2024/01/06 01:25:34;;;;;;;11.70;6.77;;;-0.30;1.00;;;;;;5032474;28;20270;-50
2024/01/06 01:27:59;;;;;;;11.07;7.00;;;-0.30;1.00;;;;;;5031861;28;20183;-50
2024/01/06 01:30:25;;;;;;;12.37;7.93;;;-0.30;1.00;;;;;;5032558;28;20179;-50
2024/01/06 01:32:50;;;;;;;13.73;8.33;;;-0.30;1.00;;;;;;5032630;28;20187;-51
2024/01/06 01:35:16;;;;;;;12.03;7.10;;;-0.30;1.00;;;;;;5032809;28;20179;-51
2024/01/06 01:37:41;;;;;;;12.77;8.30;;;-0.30;99.90;;;;;;5032148;28;20203;-50
2024/01/06 01:40:08;;;;;;;13.17;7.97;;;-0.30;99.90;;;;;;5031499;28;20186;-51
2024/01/06 01:42:33;;;;;;;12.73;7.40;;;-0.30;1.00;;;;;;5032361;28;20183;-51
2024/01/06 01:44:59;;;;;;;12.80;7.83;;;-0.30;91.10;;;;;;5032371;28;20406;-50
2024/01/06 01:47:25;;;;;;;13.70;7.60;;;-0.30;99.90;;;;;;5032102;28;20226;-50
2024/01/06 01:49:53;;;;;;;13.43;8.27;;;-0.20;57.10;;;;;;5032205;28;20179;-51
2024/01/06 01:52:19;;;;;;;12.87;7.50;;;-0.30;1.00;;;;;;5032305;28;20793;-51
2024/01/06 01:54:46;;;;;;;12.57;7.47;;;-0.30;1.00;;;;;;5032281;28;20429;-50
2024/01/06 01:57:13;;;;;;;13.40;7.93;;;-0.30;99.90;;;;;;5031978;28;20179;-50
2024/01/06 01:59:39;;;;;;;11.80;8.07;;;-0.30;99.90;;;;;;5031818;28;20437;-51
2024/01/06 02:02:05;;;;;;;12.40;7.50;;;-0.30;1.00;;;;;;5031986;28;20902;-51
2024/01/06 02:04:30;;;;;;;19.40;8.73;;;-0.30;1.00;;;;;;5032128;28;20417;-50
2024/01/06 02:06:56;;;;;;;12.63;7.87;;;-0.30;1.00;;;;;;5031463;28;20239;-50
2024/01/06 02:09:26;;;;;;;13.33;8.30;;;-0.30;3.40;;;;;;5031476;28;20263;-51
2024/01/06 02:11:52;;;;;;;14.47;9.47;;;-0.30;99.90;;;;;;5031955;28;20234;-51
2024/01/06 02:14:18;;;;;;;12.70;8.60;;;-0.30;1.00;;;;;;5032258;28;20422;-50
2024/01/06 02:16:43;;;;;;;14.00;9.10;;;-0.30;80.80;;;;;;5031752;28;20179;-50
2024/01/06 02:19:12;;;;;;;11.13;7.10;;;-0.20;99.90;;;;;;5031450;28;20306;-51
2024/01/06 02:21:42;;;;;;;14.33;8.50;;;-0.20;99.90;;;;;;5031558;28;20175;-53
2024/01/06 02:24:08;;;;;;;11.90;7.90;;;-0.20;99.90;;;;;;5031710;28;20506;-50
2024/01/06 02:26:33;;;;;;;16.00;9.13;;;-0.20;99.90;;;;;;5031549;28;20509;-50
2024/01/06 02:28:59;;;;;;;11.57;7.63;;;-0.20;99.90;;;;;;5031745;28;20187;-50
2024/01/06 02:31:24;;;;;;;14.97;8.57;;;-0.30;93.30;;;;;;5031197;28;20183;-51
2024/01/06 02:33:50;;;;;;;10.53;7.13;;;-0.20;99.90;;;;;;5031637;28;20179;-51
2024/01/06 02:36:15;;;;;;;13.60;7.87;;;-0.20;99.90;;;;;;5031597;28;20666;-50
2024/01/06 02:38:41;;;;;;;14.57;9.00;;;-0.30;1.00;;;;;;5031738;28;20218;-50
2024/01/06 02:41:07;;;;;;;13.20;7.90;;;-0.30;1.00;;;;;;5031440;28;20207;-50
2024/01/06 02:43:32;;;;;;;14.27;8.30;;;-0.30;1.00;;;;;;5031709;28;20191;-50
2024/01/06 02:45:58;;;;;;;17.00;7.57;;;-0.30;1.00;;;;;;5030942;28;20198;-50
2024/01/06 02:48:23;;;;;;;13.33;8.13;;;-0.30;1.00;;;;;;5031718;28;20186;-50
2024/01/06 02:50:49;;;;;;;12.80;8.50;;;-0.30;16.00;;;;;;5032193;28;20238;-51
2024/01/06 02:53:14;;;;;;;13.00;8.53;;;-0.30;1.00;;;;;;5034232;28;20269;-51
2024/01/06 02:55:40;;;;;;;16.30;9.57;;;-0.30;41.10;;;;;;5050809;28;20229;-51
2024/01/06 02:58:05;;;;;;;12.90;8.80;;;-0.30;99.90;;;;;;5035394;28;20207;-51
2024/01/06 03:00:31;;;;;;;15.23;8.83;;;-0.30;99.90;;;;;;5035367;28;20180;-51
2024/01/06 03:02:57;;;;;;;16.60;9.53;;;-0.30;99.90;;;;;;5050458;28;20179;-51
2024/01/06 03:05:22;;;;;;;16.63;9.40;;;-0.30;99.90;;;;;;5035290;28;20187;-51
2024/01/06 03:07:48;;;;;;;13.70;9.20;;;-0.30;99.90;;;;;;5035159;28;20244;-51
2024/01/06 03:10:13;;;;;;;17.07;9.43;;;-0.40;1.00;;;;;;5034721;28;20187;-50
2024/01/06 03:12:39;;;;;;;14.43;9.07;;;-0.40;1.00;;;;;;5035064;28;20194;-51
2024/01/06 03:15:06;;;;;;;16.10;9.57;;;-0.40;1.00;;;;;;5034948;28;20263;-50
2024/01/06 03:17:32;;;;;;;14.77;9.90;;;-0.40;99.90;;;;;;5034743;28;20560;-52
2024/01/06 03:19:57;;;;;;;16.10;9.77;;;-0.40;99.90;;;;;;5034537;28;20501;-50
2024/01/06 03:22:23;;;;;;;15.90;9.80;;;-0.40;99.90;;;;;;5034558;28;20191;-50
2024/01/06 03:24:48;;;;;;;17.40;10.33;;;-0.40;99.90;;;;;;5035191;28;20269;-50
2024/01/06 03:27:14;;;;;;;15.87;9.20;;;-0.40;99.90;;;;;;5034681;28;20183;-50
2024/01/06 03:29:40;;;;;;;18.70;10.97;;;-0.40;99.90;;;;;;5033980;28;20534;-50
2024/01/06 03:32:06;;;;;;;17.17;9.90;;;-0.30;99.90;;;;;;5034422;28;20612;-50
2024/01/06 03:34:31;;;;;;;19.37;10.30;;;-0.40;1.00;;;;;;5034848;28;20184;-50
2024/01/06 03:36:57;;;;;;;17.87;10.60;;;-0.40;1.00;;;;;;5034621;28;20418;-51
2024/01/06 03:39:22;;;;;;;17.80;10.37;;;-0.40;1.00;;;;;;5034184;28;20215;-51
2024/01/06 03:41:48;;;;;;;15.60;9.57;;;-0.40;1.00;;;;;;5034675;28;20218;-50
2024/01/06 03:44:14;;;;;;;18.83;10.67;;;-0.40;1.00;;;;;;5034306;28;20185;-50
2024/01/06 03:46:39;;;;;;;17.40;10.50;;;-0.40;1.00;;;;;;5033781;28;20414;-50
2024/01/06 03:49:05;;;;;;;18.10;10.60;;;-0.40;1.00;;;;;;5034598;28;20648;-50
2024/01/06 03:51:30;;;;;;;17.03;10.80;;;-0.40;1.00;;;;;;5034622;28;20666;-50
2024/01/06 03:53:56;;;;;;;17.67;10.53;;;-0.50;1.00;;;;;;5034115;28;20244;-49
2024/01/06 03:56:21;;;;;;;18.20;10.90;;;-0.50;1.00;;;;;;5033753;28;20237;-51
2024/01/06 03:58:48;;;;;;;17.20;10.63;;;-0.50;1.00;;;;;;5034426;28;20207;-50
2024/01/06 04:01:13;;;;;;;17.93;10.63;;;-0.50;1.00;;;;;;5034242;28;20218;-50
2024/01/06 04:03:42;;;;;;;18.47;10.47;;;-0.50;52.40;;;;;;5033049;28;20418;-51
2024/01/06 04:06:08;;;;;;;16.60;10.00;;;-0.50;99.90;;;;;;5034034;28;20191;-51
2024/01/06 04:08:33;;;;;;;17.63;10.90;;;-0.40;99.90;;;;;;5034046;28;20409;-50
2024/01/06 04:10:59;;;;;;;20.23;10.00;;;-0.40;99.90;;;;;;5033817;28;20488;-50
2024/01/06 04:13:25;;;;;;;14.67;9.60;;;-0.50;1.00;;;;;;5033692;28;20237;-50
2024/01/06 04:15:51;;;;;;;17.67;10.67;;;-0.40;99.90;;;;;;5034041;28;20261;-51
2024/01/06 04:18:17;;;;;;;18.03;10.50;;;-0.40;99.90;;;;;;5034399;28;20911;-50
2024/01/06 04:20:42;;;;;;;17.10;10.70;;;-0.40;99.90;;;;;;5033907;28;20187;-51
2024/01/06 04:23:08;;;;;;;15.00;9.83;;;-0.40;1.00;;;;;;5033103;28;20179;-50
2024/01/06 04:25:33;;;;;;;19.67;10.40;;;-0.40;99.90;;;;;;5033866;28;20189;-50
2024/01/06 04:27:59;;;;;;;16.40;9.90;;;-0.40;1.00;;;;;;5033712;28;20219;-50
2024/01/06 04:30:25;;;;;;;13.57;9.23;;;-0.40;1.00;;;;;;5033440;28;20180;-50
2024/01/06 04:32:51;;;;;;;15.53;10.10;;;-0.40;1.00;;;;;;5033129;28;20187;-51
2024/01/06 04:35:20;;;;;;;16.40;9.63;;;-0.40;1.00;;;;;;5033672;28;20423;-50
2024/01/06 04:37:46;;;;;;;15.63;9.13;;;-0.40;1.00;;;;;;5033716;28;20562;-50
2024/01/06 04:40:11;;;;;;;17.50;10.10;;;-0.40;99.90;;;;;;5033563;28;20553;-50
2024/01/06 04:42:37;;;;;;;16.70;9.50;;;-0.50;99.90;;;;;;5033177;28;20202;-50
2024/01/06 04:45:04;;;;;;;15.53;9.63;;;-0.40;99.90;;;;;;5033607;28;20214;-50
2024/01/06 04:47:30;;;;;;;17.30;10.20;;;-0.40;1.00;;;;;;5032679;28;20191;-50
2024/01/06 04:49:56;;;;;;;15.10;9.63;;;-0.40;1.00;;;;;;5033259;28;20528;-50
2024/01/06 04:52:21;;;;;;;14.87;9.70;;;-0.40;99.90;;;;;;5033056;28;20505;-52
2024/01/06 04:54:47;;;;;;;15.07;9.90;;;-0.50;99.90;;;;;;5033173;28;20184;-50
2024/01/06 04:57:12;;;;;;;17.20;11.33;;;-0.50;99.90;;;;;;5033253;28;20679;-50
2024/01/06 04:59:38;;;;;;;17.87;9.93;;;-0.50;99.90;;;;;;5032969;28;20186;-50
2024/01/06 05:02:05;;;;;;;21.23;10.23;;;-0.40;1.00;;;;;;5032689;28;20172;-50
2024/01/06 05:04:32;;;;;;;15.37;10.27;;;-0.50;1.00;;;;;;5033112;28;20210;-50
2024/01/06 05:06:58;;;;;;;16.50;10.27;;;-0.50;1.00;;;;;;5032852;28;20509;-50
2024/01/06 05:09:24;;;;;;;17.17;9.77;;;-0.50;1.00;;;;;;5032460;28;20449;-50
2024/01/06 05:11:50;;;;;;;15.93;9.43;;;-0.50;1.00;;;;;;5032909;28;20190;-50
2024/01/06 05:14:15;;;;;;;17.37;10.27;;;-0.50;99.90;;;;;;5032117;28;20418;-50
2024/01/06 05:16:41;;;;;;;21.63;12.03;;;-0.40;99.90;;;;;;5032141;28;20206;-50
2024/01/06 05:19:07;;;;;;;16.60;10.23;;;-0.40;99.90;;;;;;5032581;28;20211;-50
2024/01/06 05:21:33;;;;;;;18.47;10.70;;;-0.50;99.90;;;;;;5032540;28;20925;-51
2024/01/06 05:23:59;;;;;;;17.53;10.27;;;-0.50;99.90;;;;;;5032265;28;20225;-49
2024/01/06 05:26:25;;;;;;;17.13;10.30;;;-0.50;99.90;;;;;;5032518;28;20794;-50
2024/01/06 05:28:52;;;;;;;16.67;10.30;;;-0.50;1.00;;;;;;5032949;28;20191;-49
2024/01/06 05:31:17;;;;;;;22.40;11.13;;;-0.50;1.00;;;;;;5032721;28;20180;-48
2024/01/06 05:33:43;;;;;;;20.67;10.83;;;-0.50;1.00;;;;;;5032213;28;20414;-49
2024/01/06 05:36:08;;;;;;;19.03;10.20;;;-0.50;1.00;;;;;;5031882;28;20179;-49
2024/01/06 05:38:34;;;;;;;19.07;11.60;;;-0.50;57.60;;;;;;5032368;28;20269;-49
2024/01/06 05:40:59;;;;;;;20.37;11.47;;;-0.50;1.00;;;;;;5032252;28;20187;-49
2024/01/06 05:43:25;;;;;;;23.83;12.40;;;-0.50;15.90;;;;;;5032511;28;20182;-49
2024/01/06 05:45:51;;;;;;;21.53;11.63;;;-0.50;50.60;;;;;;5032002;28;20178;-49
2024/01/06 05:48:17;;;;;;;22.00;12.07;;;-0.50;99.90;;;;;;5032075;28;20274;-49
2024/01/06 05:50:42;;;;;;;22.20;11.33;;;-0.50;99.90;;;;;;5031725;28;20191;-49
2024/01/06 05:53:08;;;;;;;20.07;11.13;;;-0.50;99.90;;;;;;5032320;28;20600;-49
2024/01/06 05:55:34;;;;;;;21.83;11.40;;;-0.50;99.90;;;;;;5032377;28;20179;-49
2024/01/06 05:58:00;;;;;;;18.00;11.40;;;-0.50;95.90;;;;;;5031488;28;20516;-49
2024/01/06 06:00:26;;;;;;;21.20;11.73;;;-0.50;99.90;;;;;;5032163;28;20270;-49
2024/01/06 06:02:52;;;;;;;21.43;11.53;;;-0.50;99.90;;;;;;5031652;28;20513;-52
2024/01/06 06:05:17;;;;;;;19.90;11.40;;;-0.50;99.90;;;;;;5032025;28;20225;-50
2024/01/06 06:07:43;;;;;;;18.30;11.43;;;-0.50;99.90;;;;;;5031812;28;20250;-50
2024/01/06 06:10:10;;;;;;;19.00;11.80;;;-0.50;99.90;;;;;;5032281;28;20179;-49
2024/01/06 06:12:36;;;;;;;24.13;12.80;;;-0.50;99.90;;;;;;5031947;28;20188;-50
2024/01/06 06:15:03;;;;;;;20.63;11.80;;;-0.50;99.90;;;;;;5031615;28;20421;-49
2024/01/06 06:17:30;;;;;;;20.93;11.07;;;-0.50;1.00;;;;;;5032013;28;20824;-50
2024/01/06 06:19:57;;;;;;;16.33;9.93;;;-0.40;99.90;;;;;;5031953;28;20410;-50
2024/01/06 06:22:23;;;;;;;22.90;11.37;;;-0.40;99.90;;;;;;5031855;28;20509;-52
2024/01/06 06:24:48;;;;;;;20.27;11.57;;;-0.50;99.90;;;;;;5031866;28;20429;-49
2024/01/06 06:27:14;;;;;;;21.33;12.00;;;-0.40;99.90;;;;;;5034880;28;20425;-50
2024/01/06 06:29:39;;;;;;;20.43;11.93;;;-0.40;1.00;;;;;;5035954;28;20260;-50
2024/01/06 06:32:05;;;;;;;20.80;11.90;;;-0.50;1.00;;;;;;5035532;28;20820;-49
2024/01/06 06:34:31;;;;;;;20.77;11.40;;;-0.50;1.00;;;;;;5035613;28;20179;-49
2024/01/06 06:36:56;;;;;;;19.67;12.20;;;-0.50;99.90;;;;;;5035143;28;20191;-50
2024/01/06 06:39:22;;;;;;;25.93;12.60;;;-0.50;1.00;;;;;;5035829;28;20218;-53
2024/01/06 06:41:47;;;;;;;18.40;11.63;;;-0.50;1.00;;;;;;5035712;28;20263;-50
2024/01/06 06:44:13;;;;;;;21.07;12.63;;;-0.50;99.90;;;;;;5035486;28;20180;-50
2024/01/06 06:46:38;;;;;;;20.70;12.50;;;-0.50;1.00;;;;;;5035371;28;20184;-50
2024/01/06 06:49:04;;;;;;;22.60;12.50;;;-0.50;1.00;;;;;;5035351;28;20274;-50
2024/01/06 06:51:30;;;;;;;19.03;11.13;;;-0.50;1.00;;;;;;5035707;28;20179;-49
2024/01/06 06:53:56;;;;;;;20.30;12.50;;;-0.50;1.00;;;;;;5035273;28;21000;-49
2024/01/06 06:56:22;;;;;;;22.00;12.23;;;-0.50;99.90;;;;;;5035281;28;20210;-53
2024/01/06 06:58:48;;;;;;;19.67;12.27;;;-0.50;1.00;;;;;;5035108;28;21201;-49
2024/01/06 07:01:15;;;;;;;19.60;10.93;;;-0.50;1.00;;;;;;5035284;28;20275;-49
2024/01/06 07:03:40;;;;;;;24.30;12.43;;;-0.50;1.00;;;;;;5035297;28;20190;-49
2024/01/06 07:06:06;;;;;;;21.43;13.20;;;-0.50;99.90;;;;;;5034424;28;20512;-51
2024/01/06 07:08:32;;;;;;;19.90;12.20;;;-0.60;1.00;;;;;;5035112;28;20211;-50
2024/01/06 07:10:57;;;;;;;23.87;13.10;;;-0.60;6.70;;;;;;5035574;28;20183;-50
2024/01/06 07:13:23;;;;;;;22.83;12.90;;;-0.50;99.90;;;;;;5035150;28;20175;-52
2024/01/06 07:15:48;;;;;;;21.03;12.80;;;-0.50;99.90;;;;;;5035101;28;20213;-51
2024/01/06 07:18:14;;;;;;;20.70;12.00;;;-0.50;99.90;;;;;;5034825;28;20575;-49
2024/01/06 07:20:39;;;;;;;24.17;12.60;;;-0.50;99.90;;;;;;5034427;28;20530;-50
2024/01/06 07:23:05;;;;;;;20.43;11.33;;;-0.60;1.00;;;;;;5034681;28;20297;-49
2024/01/06 07:25:30;;;;;;;23.03;13.27;;;-0.60;1.00;;;;;;5034485;28;20186;-50
2024/01/06 07:27:56;;;;;;;21.93;12.97;;;-0.60;40.20;;;;;;5034624;28;20225;-50
2024/01/06 07:30:21;;;;;;;21.00;12.67;;;-0.60;99.90;;;;;;5035075;28;20656;-50
2024/01/06 07:32:49;;;;;;;21.60;12.40;;;-0.60;99.90;;;;;;5034776;28;20640;-48
2024/01/06 07:35:16;;;;;;;24.73;13.47;;;-0.60;1.00;;;;;;5034526;28;20230;-48
2024/01/06 07:37:41;;;;;;;23.27;12.70;;;-0.60;99.90;;;;;;5033782;28;20468;-48
2024/01/06 07:40:07;;;;;;;23.30;12.83;;;-0.60;99.90;;;;;;5034410;28;20775;-49
2024/01/06 07:42:33;;;;;;;21.77;12.70;;;-0.60;99.90;;;;;;5034192;28;20192;-49
2024/01/06 07:44:58;;;;;;;21.80;12.70;;;-0.50;99.90;;;;;;5034590;28;21002;-49
2024/01/06 07:47:24;;;;;;;27.53;13.30;;;-0.50;99.90;;;;;;5034487;28;20534;-49
2024/01/06 07:49:50;;;;;;;20.30;12.07;;;-0.50;1.00;;;;;;5034849;28;20183;-50
2024/01/06 07:52:16;;;;;;;22.10;12.00;;;-0.50;99.90;;;;;;5034059;28;20826;-49
2024/01/06 07:54:42;;;;;;;19.30;12.00;;;-0.40;99.90;;;;;;5034091;28;20426;-49
2024/01/06 07:57:07;;;;;;;19.53;10.80;;;-0.40;1.00;;;;;;5034038;28;20418;-49
2024/01/06 07:59:33;;;;;;;23.20;11.40;;;-0.50;99.90;;;;;;5034371;28;20243;-49
2024/01/06 08:01:59;;;;;;;20.57;12.10;;;-0.40;99.90;;;;;;5034328;28;20189;-50
2024/01/06 08:04:24;;;;;;;21.97;12.70;;;-0.40;1.00;;;;;;5033441;28;20548;-49
2024/01/06 08:06:50;;;;;;;19.70;11.57;;;-0.50;99.90;;;;;;5033960;28;20242;-49
2024/01/06 08:09:15;;;;;;;28.90;13.70;;;-0.50;1.00;;;;;;5034280;28;20191;-49
2024/01/06 08:11:42;;;;;;;20.10;11.57;;;-0.50;99.90;;;;;;5034013;28;20183;-49
2024/01/06 08:14:08;;;;;;;22.23;11.07;;;-0.50;99.90;;;;;;5033300;28;20666;-49
2024/01/06 08:16:33;;;;;;;20.13;11.57;;;-0.40;99.90;;;;;;5033975;28;20422;-49
2024/01/06 08:18:59;;;;;;;22.20;11.80;;;-0.40;1.00;;;;;;5033587;28;20219;-50
2024/01/06 08:21:25;;;;;;;18.77;10.90;;;-0.40;99.90;;;;;;5033519;28;20222;-50
2024/01/06 08:23:50;;;;;;;16.60;10.60;;;-0.50;99.90;;;;;;5033433;28;20179;-50
2024/01/06 08:26:16;;;;;;;18.67;11.20;;;-0.40;99.90;;;;;;5033762;28;20189;-50
2024/01/06 08:28:42;;;;;;;21.03;11.27;;;-0.40;1.00;;;;;;5033626;28;20234;-50
2024/01/06 08:31:07;;;;;;;20.10;11.57;;;-0.40;1.00;;;;;;5033510;28;20184;-49
2024/01/06 08:33:33;;;;;;;19.13;11.77;;;-0.40;1.00;;;;;;5033418;28;20278;-49
2024/01/06 08:35:58;;;;;;;21.10;12.13;;;-0.40;99.90;;;;;;5033267;28;20218;-49
2024/01/06 08:38:24;;;;;;;19.83;11.47;;;-0.40;81.50;;;;;;5033140;28;20250;-49
2024/01/06 08:40:50;;;;;;;19.30;11.70;;;-0.40;1.00;;;;;;5033556;28;20186;-49
2024/01/06 08:43:16;;;;;;;20.37;11.80;;;-0.30;1.00;;;;;;5033425;28;20225;-49
2024/01/06 08:45:41;;;;;;;21.37;10.90;;;-0.30;99.90;;;;;;5032947;28;20190;-51
2024/01/06 08:48:07;;;;;;;22.10;11.50;;;-0.30;1.00;;;;;;5032914;28;20425;-49
2024/01/06 08:50:33;;;;;;;21.10;11.17;;;-0.30;1.00;;;;;;5032219;28;20523;-50
2024/01/06 08:52:58;;;;;;;17.43;11.00;;;-0.30;1.00;;;;;;5032931;28;20211;-50
2024/01/06 08:55:24;;;;;;;19.50;10.80;;;-0.30;99.90;;;;;;5033104;28;20180;-50
2024/01/06 08:57:50;;;;;;;20.40;10.90;;;-0.40;99.90;;;;;;5033064;28;20223;-50
2024/01/06 09:00:17;;;;;;;61.37;14.90;;;-0.40;99.90;;;;;;5032498;28;20479;-50
2024/01/06 09:02:42;;;;;;;37.70;12.07;;;-0.30;99.90;;;;;;5033167;28;20271;-50
2024/01/06 09:05:08;;;;;;;26.97;11.63;;;-0.30;99.90;;;;;;5033077;28;20445;-51
2024/01/06 09:07:33;;;;;;;64.23;14.97;;;-0.30;10.20;;;;;;5031489;28;20234;-50
2024/01/06 09:09:59;;;;;;;24.10;11.10;;;-0.20;1.00;;;;;;5032744;28;20182;-50
2024/01/06 09:12:25;;;;;;;31.13;11.80;;;-0.20;1.00;;;;;;5032627;28;20237;-50
2024/01/06 09:14:50;;;;;;;20.47;11.03;;;-0.30;1.00;;;;;;5033371;28;20199;-49
2024/01/06 09:17:16;;;;;;;20.10;10.80;;;-0.20;1.00;;;;;;5033062;28;20643;-48
2024/01/06 09:19:42;;;;;;;18.00;10.10;;;-0.30;99.90;;;;;;5031833;28;20649;-50
2024/01/06 09:22:07;;;;;;;17.37;10.50;;;-0.30;1.00;;;;;;5032022;28;20655;-49
2024/01/06 09:24:33;;;;;;;19.53;11.10;;;-0.20;1.00;;;;;;5032502;28;20277;-49
2024/01/06 09:26:59;;;;;;;17.50;10.50;;;-0.20;1.00;;;;;;5020476;28;20717;-48
2024/01/06 09:29:25;;;;;;;16.87;9.47;;;-0.20;99.90;;;;;;5015968;28;20215;-50
2024/01/06 09:31:50;;;;;;;19.67;10.90;;;-0.20;99.90;;;;;;5012555;28;20208;-49
2024/01/06 09:34:16;;;;;;;17.30;10.20;;;-0.20;99.90;;;;;;5013986;28;20191;-50
2024/01/06 09:36:41;;;;;;;15.67;9.80;;;-0.10;99.90;;;;;;5018413;28;20194;-49
2024/01/06 09:39:08;;;;;;;17.47;10.80;;;-0.10;99.90;;;;;;5014434;28;20219;-49
2024/01/06 09:41:33;;;;;;;17.63;10.10;;;-0.10;99.90;;;;;;5019516;28;20294;-49
2024/01/06 09:43:59;;;;;;;19.67;10.50;;;-0.10;99.90;;;;;;5023582;28;20458;-48
2024/01/06 09:46:26;;;;;;;16.27;9.63;;;-0.10;99.90;;;;;;5018318;28;20187;-49
2024/01/06 09:48:53;;;;;;;22.30;11.27;;;-0.10;99.90;;;;;;5016017;28;20277;-49
2024/01/06 09:51:19;;;;;;;18.70;11.23;;;0.00;99.90;;;;;;5018500;28;20471;-51
2024/01/06 09:53:54;;;;;;;21.07;10.40;;;0.00;99.90;;;;;;5015521;28;20780;-49
2024/01/06 09:56:19;;;;;;;21.90;11.37;;;0.00;74.40;;;;;;5020811;28;20445;-49
2024/01/06 09:58:45;;;;;;;18.73;11.50;;;0.00;99.90;;;;;;5014067;28;20866;-50
2024/01/06 10:01:11;;;;;;;20.90;11.97;;;0.00;60.30;;;;;;5015269;28;20183;-49
2024/01/06 10:03:38;;;;;;;23.70;11.20;;;0.10;94.50;;;;;;5012480;28;20196;-50
2024/01/06 10:06:04;;;;;;;20.60;11.10;;;0.00;12.90;;;;;;5013975;28;20455;-49
2024/01/06 10:08:33;;;;;;;16.50;9.60;;;0.10;19.90;;;;;;5020916;28;20466;-48
2024/01/06 10:11:00;;;;;;;22.93;10.90;;;0.10;51.70;;;;;;5028480;28;21016;-50
2024/01/06 10:13:25;;;;;;;18.40;11.23;;;0.10;43.90;;;;;;5019670;28;20484;-48
2024/01/06 10:15:51;;;;;;;18.80;10.57;;;0.10;12.10;;;;;;5021589;28;20935;-49
2024/01/06 10:18:17;;;;;;;16.67;10.43;;;0.20;1.00;;;;;;5020460;28;20225;-48
2024/01/06 10:20:45;;;;;;;22.37;11.20;;;0.20;1.00;;;;;;5025768;28;20195;-49
2024/01/06 10:23:10;;;;;;;18.40;9.90;;;0.20;1.00;;;;;;5031222;28;20240;-50
2024/01/06 10:25:36;;;;;;;19.17;10.43;;;0.20;1.00;;;;;;5031592;28;20410;-50
2024/01/06 10:28:03;;;;;;;17.90;10.60;;;0.20;1.00;;;;;;5031365;28;20188;-49
2024/01/06 10:30:28;;;;;;;18.77;9.83;;;0.10;1.00;;;;;;5031733;28;20180;-49
2024/01/06 10:32:54;;;;;;;18.97;10.53;;;0.20;1.00;;;;;;5032129;28;20456;-51
2024/01/06 10:35:20;;;;;;;19.23;11.10;;;0.20;1.00;;;;;;5031555;28;20537;-49
2024/01/06 10:37:47;;;;;;;17.17;10.10;;;0.20;1.00;;;;;;5031454;28;20211;-49
2024/01/06 10:40:17;;;;;;;19.40;10.37;;;0.10;1.00;;;;;;5030545;28;20176;-49
2024/01/06 10:42:43;;;;;;;18.60;10.80;;;0.20;1.00;;;;;;5033010;28;20918;-50
2024/01/06 10:45:13;;;;;;;16.17;9.43;;;0.20;1.00;;;;;;5048069;28;20437;-49
2024/01/06 10:47:40;;;;;;;16.33;9.77;;;0.20;1.00;;;;;;5032720;28;20433;-49
2024/01/06 10:50:07;;;;;;;17.80;10.43;;;0.20;1.00;;;;;;5032644;28;20951;-50
2024/01/06 10:52:35;;;;;;;15.37;9.93;;;0.10;1.00;;;;;;5033061;28;20422;-50
2024/01/06 10:55:02;;;;;;;20.07;10.07;;;0.10;1.00;;;;;;5032872;28;20420;-50
2024/01/06 10:57:31;;;;;;;19.00;11.07;;;0.10;1.00;;;;;;5029137;28;20478;-50
2024/01/06 10:59:58;;;;;;;14.87;8.90;;;0.10;1.00;;;;;;5031812;28;20418;-50
2024/01/06 11:02:25;;;;;;;18.47;10.97;;;0.10;1.00;;;;;;5031794;28;20410;-52
2024/01/06 11:04:51;;;;;;;17.27;9.30;;;0.20;1.00;;;;;;5031478;28;20509;-50
2024/01/06 11:07:22;;;;;;;16.80;9.83;;;0.20;1.00;;;;;;5030395;28;20539;-50
2024/01/06 11:09:58;;;;;;;16.30;9.27;;;0.20;1.00;;;;;;5031645;28;20452;-50
2024/01/06 11:12:26;;;;;;;18.90;10.03;;;0.10;1.00;;;;;;5031665;28;20508;-50
2024/01/06 11:14:51;;;;;;;17.53;9.80;;;0.20;1.00;;;;;;5035095;28;20426;-50
2024/01/06 11:17:53;;;;;;;17.50;9.90;;;0.20;1.00;;;;;;5034090;28;20496;-49
2024/01/06 11:20:21;;;;;;;22.13;10.07;;;0.30;1.00;;;;;;5034390;28;20194;-49
2024/01/06 11:22:47;;;;;;;15.90;9.17;;;0.40;1.00;;;;;;5034740;28;20483;-49
2024/01/06 11:25:17;;;;;;;15.63;8.50;;;0.40;1.00;;;;;;5035039;28;20429;-50
2024/01/06 11:27:46;;;;;;;21.13;9.53;;;0.20;1.00;;;;;;5034419;28;20426;-49
2024/01/06 11:30:26;;;;;;;17.37;8.60;;;0.20;1.00;;;;;;5034212;28;20488;-50
2024/01/06 11:32:53;;;;;;;14.37;8.67;;;0.30;1.00;;;;;;5034813;28;20444;-49
2024/01/06 11:35:20;;;;;;;14.17;8.50;;;0.30;1.00;;;;;;5034389;28;20457;-49
2024/01/06 11:37:45;;;;;;;15.50;8.47;;;0.20;1.00;;;;;;5034846;28;20462;-50
2024/01/06 11:40:20;;;;;;;13.80;8.20;;;0.20;1.00;;;;;;5034423;28;20472;-49
2024/01/06 11:42:58;;;;;;;14.27;8.90;;;0.30;1.00;;;;;;5034538;28;20645;-49
2024/01/06 11:45:27;;;;;;;15.43;8.83;;;0.30;1.00;;;;;;5034424;28;20415;-52
2024/01/06 11:48:02;;;;;;;15.27;9.07;;;0.40;1.00;;;;;;5034577;28;20989;-49
2024/01/06 11:50:32;;;;;;;16.80;8.50;;;0.30;1.00;;;;;;5034102;28;20471;-49
2024/01/06 11:52:59;;;;;;;12.17;7.83;;;0.30;1.00;;;;;;5034396;28;20469;-49
2024/01/06 11:55:27;;;;;;;17.30;8.73;;;0.30;1.00;;;;;;5034379;28;20452;-50
2024/01/06 11:57:57;;;;;;;14.17;8.03;;;0.20;1.00;;;;;;5033373;28;20790;-51
2024/01/06 12:00:23;;;;;;;13.20;8.20;;;0.20;1.00;;;;;;5034492;28;20402;-49
2024/01/06 12:02:49;;;;;;;13.60;7.90;;;0.20;1.00;;;;;;5034464;28;20800;-48
2024/01/06 12:05:17;;;;;;;16.30;8.07;;;0.20;1.00;;;;;;5033773;28;20187;-49
2024/01/06 12:07:44;;;;;;;15.73;7.93;;;0.30;1.00;;;;;;5033507;28;20465;-50
2024/01/06 12:10:10;;;;;;;17.07;7.93;;;0.20;1.00;;;;;;5033889;28;20926;-49
2024/01/06 12:12:37;;;;;;;10.83;7.57;;;0.30;1.00;;;;;;5033482;28;20464;-48
2024/01/06 12:15:03;;;;;;;10.33;6.70;;;0.30;1.00;;;;;;5033968;28;21071;-49
2024/01/06 12:17:30;;;;;;;12.70;7.10;;;0.30;1.00;;;;;;5033316;28;20524;-50
2024/01/06 12:19:57;;;;;;;11.90;6.53;;;0.20;1.00;;;;;;5033540;28;20422;-49
2024/01/06 12:22:22;;;;;;;11.23;7.27;;;0.20;1.00;;;;;;5034040;28;20489;-50
2024/01/06 12:24:51;;;;;;;10.77;6.97;;;0.20;1.00;;;;;;5033398;28;20180;-50
2024/01/06 12:27:18;;;;;;;12.93;7.67;;;0.10;1.00;;;;;;5048363;28;20175;-50
2024/01/06 12:29:44;;;;;;;10.57;6.87;;;0.20;1.00;;;;;;5033395;28;20437;-50
2024/01/06 12:32:13;;;;;;;12.07;7.40;;;0.20;1.00;;;;;;5033215;28;20415;-50